sensor_id;sensor_type;location;lat;lon;timestamp;P1;durP1;ratioP1;P2;durP2;ratioP2
297;SDS011;133;49.626;9.680;2023-01-05T00:01:03;3.93;;;3.27;;
297;SDS011;133;49.626;9.680;2023-01-05T00:03:30;3.13;;;2.93;;
297;SDS011;133;49.626;9.680;2023-01-05T00:06:04;3.23;;;3.03;;
297;SDS011;133;49.626;9.680;2023-01-05T00:08:31;2.70;;;2.50;;
297;SDS011;133;49.626;9.680;2023-01-05T00:10:56;2.90;;;2.70;;
297;SDS011;133;49.626;9.680;2023-01-05T00:13:45;3.13;;;2.93;;
297;SDS011;133;49.626;9.680;2023-01-05T00:16:30;3.30;;;3.10;;
297;SDS011;133;49.626;9.680;2023-01-05T00:19:14;2.70;;;2.50;;
297;SDS011;133;49.626;9.680;2023-01-05T00:21:59;5.13;;;2.87;;
297;SDS011;133;49.626;9.680;2023-01-05T00:24:43;2.67;;;2.47;;
297;SDS011;133;49.626;9.680;2023-01-05T00:27:09;2.70;;;2.50;;
297;SDS011;133;49.626;9.680;2023-01-05T00:29:35;2.90;;;2.27;;
297;SDS011;133;49.626;9.680;2023-01-05T00:32:00;3.57;;;2.83;;
297;SDS011;133;49.626;9.680;2023-01-05T00:34:26;2.30;;;2.10;;
297;SDS011;133;49.626;9.680;2023-01-05T00:36:53;2.70;;;2.50;;
297;SDS011;133;49.626;9.680;2023-01-05T00:39:18;2.80;;;2.60;;
297;SDS011;133;49.626;9.680;2023-01-05T00:41:44;2.63;;;2.43;;
297;SDS011;133;49.626;9.680;2023-01-05T00:44:09;2.73;;;2.53;;
297;SDS011;133;49.626;9.680;2023-01-05T00:46:35;2.73;;;2.53;;
297;SDS011;133;49.626;9.680;2023-01-05T00:49:01;2.50;;;2.30;;
297;SDS011;133;49.626;9.680;2023-01-05T00:51:26;2.40;;;2.20;;
297;SDS011;133;49.626;9.680;2023-01-05T00:53:52;3.83;;;2.27;;
297;SDS011;133;49.626;9.680;2023-01-05T00:56:17;2.83;;;2.63;;
297;SDS011;133;49.626;9.680;2023-01-05T00:58:43;2.83;;;2.63;;
297;SDS011;133;49.626;9.680;2023-01-05T01:01:12;2.70;;;2.50;;
297;SDS011;133;49.626;9.680;2023-01-05T01:03:38;2.60;;;2.40;;
297;SDS011;133;49.626;9.680;2023-01-05T01:06:04;2.50;;;2.30;;
297;SDS011;133;49.626;9.680;2023-01-05T01:08:30;2.63;;;2.43;;
297;SDS011;133;49.626;9.680;2023-01-05T01:10:55;2.43;;;2.23;;
297;SDS011;133;49.626;9.680;2023-01-05T01:13:24;2.50;;;2.30;;
297;SDS011;133;49.626;9.680;2023-01-05T01:15:50;2.27;;;2.07;;
297;SDS011;133;49.626;9.680;2023-01-05T01:18:15;2.30;;;2.10;;
297;SDS011;133;49.626;9.680;2023-01-05T01:20:41;2.37;;;2.20;;
297;SDS011;133;49.626;9.680;2023-01-05T01:23:07;2.43;;;2.23;;
297;SDS011;133;49.626;9.680;2023-01-05T01:25:33;2.97;;;2.20;;
297;SDS011;133;49.626;9.680;2023-01-05T01:27:58;2.43;;;2.23;;
297;SDS011;133;49.626;9.680;2023-01-05T01:30:25;2.20;;;2.00;;
297;SDS011;133;49.626;9.680;2023-01-05T01:32:50;2.40;;;2.20;;
297;SDS011;133;49.626;9.680;2023-01-05T01:35:16;2.30;;;2.10;;
297;SDS011;133;49.626;9.680;2023-01-05T01:37:41;2.57;;;2.37;;
297;SDS011;133;49.626;9.680;2023-01-05T01:40:07;2.70;;;2.50;;
297;SDS011;133;49.626;9.680;2023-01-05T01:42:34;2.70;;;2.50;;
297;SDS011;133;49.626;9.680;2023-01-05T01:45:00;2.70;;;2.50;;
297;SDS011;133;49.626;9.680;2023-01-05T01:47:41;2.77;;;2.57;;
297;SDS011;133;49.626;9.680;2023-01-05T01:50:13;2.50;;;2.30;;
297;SDS011;133;49.626;9.680;2023-01-05T01:53:07;2.80;;;2.60;;
297;SDS011;133;49.626;9.680;2023-01-05T01:55:38;2.50;;;2.30;;
297;SDS011;133;49.626;9.680;2023-01-05T01:58:05;2.93;;;2.73;;
297;SDS011;133;49.626;9.680;2023-01-05T02:00:35;2.50;;;2.30;;
297;SDS011;133;49.626;9.680;2023-01-05T02:03:03;2.83;;;2.63;;
297;SDS011;133;49.626;9.680;2023-01-05T02:05:30;2.60;;;2.40;;
297;SDS011;133;49.626;9.680;2023-01-05T02:07:57;2.77;;;2.57;;
297;SDS011;133;49.626;9.680;2023-01-05T02:10:49;2.77;;;2.57;;
297;SDS011;133;49.626;9.680;2023-01-05T02:13:39;2.97;;;2.77;;
297;SDS011;133;49.626;9.680;2023-01-05T02:16:23;2.47;;;2.27;;
297;SDS011;133;49.626;9.680;2023-01-05T02:38:24;2.13;;;1.97;;
297;SDS011;133;49.626;9.680;2023-01-05T02:41:10;3.77;;;2.20;;
297;SDS011;133;49.626;9.680;2023-01-05T02:43:42;2.27;;;2.07;;
297;SDS011;133;49.626;9.680;2023-01-05T02:46:09;2.37;;;2.17;;
297;SDS011;133;49.626;9.680;2023-01-05T02:48:34;2.40;;;2.20;;
297;SDS011;133;49.626;9.680;2023-01-05T02:51:06;2.07;;;1.93;;
297;SDS011;133;49.626;9.680;2023-01-05T02:53:38;1.90;;;1.80;;
297;SDS011;133;49.626;9.680;2023-01-05T02:56:09;2.47;;;2.10;;
297;SDS011;133;49.626;9.680;2023-01-05T03:01:22;1.90;;;1.80;;
297;SDS011;133;49.626;9.680;2023-01-05T03:03:52;2.50;;;2.30;;
297;SDS011;133;49.626;9.680;2023-01-05T03:06:23;2.30;;;2.10;;
297;SDS011;133;49.626;9.680;2023-01-05T03:08:55;2.30;;;2.10;;
297;SDS011;133;49.626;9.680;2023-01-05T03:11:25;2.20;;;2.00;;
297;SDS011;133;49.626;9.680;2023-01-05T03:14:22;2.30;;;2.10;;
297;SDS011;133;49.626;9.680;2023-01-05T03:16:55;5.27;;;2.03;;
297;SDS011;133;49.626;9.680;2023-01-05T03:19:23;2.50;;;2.30;;
297;SDS011;133;49.626;9.680;2023-01-05T03:22:07;2.50;;;2.30;;
297;SDS011;133;49.626;9.680;2023-01-05T03:24:59;2.20;;;2.00;;
297;SDS011;133;49.626;9.680;2023-01-05T03:27:44;2.43;;;2.23;;
297;SDS011;133;49.626;9.680;2023-01-05T03:31:06;2.27;;;2.07;;
297;SDS011;133;49.626;9.680;2023-01-05T03:36:57;1.90;;;1.80;;
297;SDS011;133;49.626;9.680;2023-01-05T03:39:26;1.90;;;1.80;;
297;SDS011;133;49.626;9.680;2023-01-05T03:41:54;2.40;;;2.20;;
297;SDS011;133;49.626;9.680;2023-01-05T03:44:21;1.70;;;1.60;;
297;SDS011;133;49.626;9.680;2023-01-05T03:46:46;2.30;;;2.10;;
297;SDS011;133;49.626;9.680;2023-01-05T03:49:12;2.00;;;1.90;;
297;SDS011;133;49.626;9.680;2023-01-05T03:51:38;1.87;;;1.77;;
297;SDS011;133;49.626;9.680;2023-01-05T03:54:03;2.30;;;2.10;;
297;SDS011;133;49.626;9.680;2023-01-05T03:56:29;2.00;;;1.90;;
297;SDS011;133;49.626;9.680;2023-01-05T03:58:55;2.00;;;1.90;;
297;SDS011;133;49.626;9.680;2023-01-05T04:01:20;2.30;;;2.10;;
297;SDS011;133;49.626;9.680;2023-01-05T04:03:46;2.40;;;2.20;;
297;SDS011;133;49.626;9.680;2023-01-05T04:06:11;1.77;;;1.67;;
297;SDS011;133;49.626;9.680;2023-01-05T04:08:37;1.80;;;1.70;;
297;SDS011;133;49.626;9.680;2023-01-05T04:11:16;1.93;;;1.83;;
297;SDS011;133;49.626;9.680;2023-01-05T04:13:43;3.33;;;1.90;;
297;SDS011;133;49.626;9.680;2023-01-05T04:16:09;2.27;;;1.93;;
297;SDS011;133;49.626;9.680;2023-01-05T04:18:35;1.90;;;1.80;;
297;SDS011;133;49.626;9.680;2023-01-05T04:21:01;1.80;;;1.70;;
297;SDS011;133;49.626;9.680;2023-01-05T04:23:27;1.67;;;1.57;;
297;SDS011;133;49.626;9.680;2023-01-05T04:25:53;2.27;;;2.07;;
297;SDS011;133;49.626;9.680;2023-01-05T04:28:18;1.77;;;1.67;;
297;SDS011;133;49.626;9.680;2023-01-05T04:30:44;1.90;;;1.80;;
297;SDS011;133;49.626;9.680;2023-01-05T04:33:13;1.53;;;1.50;;
297;SDS011;133;49.626;9.680;2023-01-05T04:35:39;2.23;;;1.63;;
297;SDS011;133;49.626;9.680;2023-01-05T04:38:04;2.90;;;1.90;;
297;SDS011;133;49.626;9.680;2023-01-05T04:40:30;10.63;;;2.30;;
297;SDS011;133;49.626;9.680;2023-01-05T04:42:56;6.33;;;2.20;;
297;SDS011;133;49.626;9.680;2023-01-05T04:45:21;8.30;;;2.10;;
297;SDS011;133;49.626;9.680;2023-01-05T04:47:47;6.13;;;2.43;;
297;SDS011;133;49.626;9.680;2023-01-05T04:50:13;5.47;;;2.00;;
297;SDS011;133;49.626;9.680;2023-01-05T04:52:38;5.23;;;1.97;;
297;SDS011;133;49.626;9.680;2023-01-05T04:55:04;10.20;;;3.30;;
297;SDS011;133;49.626;9.680;2023-01-05T04:57:30;10.97;;;3.03;;
297;SDS011;133;49.626;9.680;2023-01-05T04:59:56;8.50;;;3.27;;
297;SDS011;133;49.626;9.680;2023-01-05T05:02:21;6.93;;;2.33;;
297;SDS011;133;49.626;9.680;2023-01-05T05:04:47;17.60;;;3.30;;
297;SDS011;133;49.626;9.680;2023-01-05T05:07:12;13.03;;;2.70;;
297;SDS011;133;49.626;9.680;2023-01-05T05:09:38;7.87;;;2.70;;
297;SDS011;133;49.626;9.680;2023-01-05T05:12:04;9.13;;;2.90;;
297;SDS011;133;49.626;9.680;2023-01-05T05:14:29;4.90;;;2.37;;
297;SDS011;133;49.626;9.680;2023-01-05T05:16:55;6.97;;;3.03;;
297;SDS011;133;49.626;9.680;2023-01-05T05:19:21;12.23;;;2.97;;
297;SDS011;133;49.626;9.680;2023-01-05T05:21:46;10.30;;;3.10;;
297;SDS011;133;49.626;9.680;2023-01-05T05:24:12;7.13;;;2.97;;
297;SDS011;133;49.626;9.680;2023-01-05T05:26:37;17.10;;;3.53;;
297;SDS011;133;49.626;9.680;2023-01-05T05:29:03;10.03;;;3.20;;
297;SDS011;133;49.626;9.680;2023-01-05T05:31:29;5.67;;;2.67;;
297;SDS011;133;49.626;9.680;2023-01-05T05:33:54;7.93;;;3.40;;
297;SDS011;133;49.626;9.680;2023-01-05T05:36:21;6.23;;;3.10;;
297;SDS011;133;49.626;9.680;2023-01-05T05:38:47;9.73;;;3.40;;
297;SDS011;133;49.626;9.680;2023-01-05T05:41:13;13.30;;;2.80;;
297;SDS011;133;49.626;9.680;2023-01-05T05:43:38;6.93;;;2.73;;
297;SDS011;133;49.626;9.680;2023-01-05T05:46:04;8.07;;;3.37;;
297;SDS011;133;49.626;9.680;2023-01-05T05:48:30;14.40;;;3.07;;
297;SDS011;133;49.626;9.680;2023-01-05T05:50:55;6.87;;;2.80;;
297;SDS011;133;49.626;9.680;2023-01-05T05:53:22;5.80;;;2.60;;
297;SDS011;133;49.626;9.680;2023-01-05T05:55:48;11.67;;;3.30;;
297;SDS011;133;49.626;9.680;2023-01-05T05:58:14;10.90;;;3.13;;
297;SDS011;133;49.626;9.680;2023-01-05T06:00:41;6.33;;;3.00;;
297;SDS011;133;49.626;9.680;2023-01-05T06:03:06;11.87;;;2.80;;
297;SDS011;133;49.626;9.680;2023-01-05T06:05:32;9.20;;;2.90;;
297;SDS011;133;49.626;9.680;2023-01-05T06:07:57;11.70;;;3.50;;
297;SDS011;133;49.626;9.680;2023-01-05T06:10:23;10.73;;;2.97;;
297;SDS011;133;49.626;9.680;2023-01-05T06:12:49;10.93;;;2.90;;
297;SDS011;133;49.626;9.680;2023-01-05T06:15:16;9.10;;;2.77;;
297;SDS011;133;49.626;9.680;2023-01-05T06:17:43;8.80;;;3.10;;
297;SDS011;133;49.626;9.680;2023-01-05T06:20:10;8.33;;;2.60;;
297;SDS011;133;49.626;9.680;2023-01-05T06:22:35;14.77;;;3.03;;
297;SDS011;133;49.626;9.680;2023-01-05T06:25:01;13.37;;;3.50;;
297;SDS011;133;49.626;9.680;2023-01-05T06:27:31;6.80;;;2.97;;
297;SDS011;133;49.626;9.680;2023-01-05T06:29:56;10.67;;;2.80;;
297;SDS011;133;49.626;9.680;2023-01-05T06:32:22;11.93;;;3.00;;
297;SDS011;133;49.626;9.680;2023-01-05T06:34:48;10.17;;;3.13;;
297;SDS011;133;49.626;9.680;2023-01-05T06:37:14;13.50;;;2.83;;
297;SDS011;133;49.626;9.680;2023-01-05T06:39:39;17.77;;;3.00;;
297;SDS011;133;49.626;9.680;2023-01-05T06:42:05;8.60;;;3.10;;
297;SDS011;133;49.626;9.680;2023-01-05T06:44:31;12.53;;;3.10;;
297;SDS011;133;49.626;9.680;2023-01-05T06:46:57;8.10;;;3.00;;
297;SDS011;133;49.626;9.680;2023-01-05T06:49:22;11.13;;;2.87;;
297;SDS011;133;49.626;9.680;2023-01-05T06:51:48;11.07;;;2.90;;
297;SDS011;133;49.626;9.680;2023-01-05T06:54:15;7.97;;;3.13;;
297;SDS011;133;49.626;9.680;2023-01-05T06:56:40;8.40;;;3.30;;
297;SDS011;133;49.626;9.680;2023-01-05T06:59:06;9.83;;;3.03;;
297;SDS011;133;49.626;9.680;2023-01-05T07:01:31;13.57;;;3.00;;
297;SDS011;133;49.626;9.680;2023-01-05T07:03:58;7.30;;;2.70;;
297;SDS011;133;49.626;9.680;2023-01-05T07:06:24;11.47;;;2.80;;
297;SDS011;133;49.626;9.680;2023-01-05T07:08:50;12.03;;;4.53;;
297;SDS011;133;49.626;9.680;2023-01-05T07:11:15;10.17;;;2.60;;
297;SDS011;133;49.626;9.680;2023-01-05T07:13:41;8.33;;;3.10;;
297;SDS011;133;49.626;9.680;2023-01-05T07:16:10;6.80;;;2.90;;
297;SDS011;133;49.626;9.680;2023-01-05T07:18:36;8.17;;;3.10;;
297;SDS011;133;49.626;9.680;2023-01-05T07:21:02;5.13;;;2.93;;
297;SDS011;133;49.626;9.680;2023-01-05T07:23:27;9.77;;;3.63;;
297;SDS011;133;49.626;9.680;2023-01-05T07:25:54;12.03;;;3.37;;
297;SDS011;133;49.626;9.680;2023-01-05T07:28:19;9.30;;;4.40;;
297;SDS011;133;49.626;9.680;2023-01-05T07:30:49;8.23;;;3.50;;
297;SDS011;133;49.626;9.680;2023-01-05T07:33:15;15.17;;;3.43;;
297;SDS011;133;49.626;9.680;2023-01-05T07:35:41;9.57;;;3.03;;
297;SDS011;133;49.626;9.680;2023-01-05T07:38:07;6.97;;;3.20;;
297;SDS011;133;49.626;9.680;2023-01-05T07:40:32;9.50;;;3.13;;
297;SDS011;133;49.626;9.680;2023-01-05T07:42:58;10.83;;;3.03;;
297;SDS011;133;49.626;9.680;2023-01-05T07:45:23;7.93;;;2.80;;
297;SDS011;133;49.626;9.680;2023-01-05T07:47:49;7.90;;;4.07;;
297;SDS011;133;49.626;9.680;2023-01-05T07:50:15;11.73;;;3.73;;
297;SDS011;133;49.626;9.680;2023-01-05T07:52:40;6.37;;;2.80;;
297;SDS011;133;49.626;9.680;2023-01-05T07:55:06;6.80;;;2.80;;
297;SDS011;133;49.626;9.680;2023-01-05T07:57:32;13.37;;;3.23;;
297;SDS011;133;49.626;9.680;2023-01-05T07:59:57;9.43;;;3.20;;
297;SDS011;133;49.626;9.680;2023-01-05T08:02:23;5.70;;;3.03;;
297;SDS011;133;49.626;9.680;2023-01-05T08:04:51;5.27;;;3.20;;
297;SDS011;133;49.626;9.680;2023-01-05T08:07:17;10.73;;;2.83;;
297;SDS011;133;49.626;9.680;2023-01-05T08:09:43;8.53;;;2.93;;
297;SDS011;133;49.626;9.680;2023-01-05T08:12:27;9.87;;;2.90;;
297;SDS011;133;49.626;9.680;2023-01-05T08:14:53;11.60;;;3.73;;
297;SDS011;133;49.626;9.680;2023-01-05T08:17:19;4.57;;;2.60;;
297;SDS011;133;49.626;9.680;2023-01-05T08:19:45;12.63;;;3.63;;
297;SDS011;133;49.626;9.680;2023-01-05T08:22:10;8.93;;;2.87;;
297;SDS011;133;49.626;9.680;2023-01-05T08:24:37;4.57;;;3.43;;
297;SDS011;133;49.626;9.680;2023-01-05T08:27:13;8.87;;;2.70;;
297;SDS011;133;49.626;9.680;2023-01-05T08:29:39;4.57;;;2.50;;
297;SDS011;133;49.626;9.680;2023-01-05T08:32:04;5.90;;;2.70;;
297;SDS011;133;49.626;9.680;2023-01-05T08:34:30;7.43;;;2.50;;
297;SDS011;133;49.626;9.680;2023-01-05T08:36:55;9.40;;;3.33;;
297;SDS011;133;49.626;9.680;2023-01-05T08:39:21;8.80;;;3.00;;
297;SDS011;133;49.626;9.680;2023-01-05T08:41:47;11.03;;;2.80;;
297;SDS011;133;49.626;9.680;2023-01-05T08:44:12;5.67;;;2.27;;
297;SDS011;133;49.626;9.680;2023-01-05T08:46:39;9.10;;;2.70;;
297;SDS011;133;49.626;9.680;2023-01-05T08:49:05;7.10;;;2.97;;
297;SDS011;133;49.626;9.680;2023-01-05T08:51:32;10.87;;;2.90;;
297;SDS011;133;49.626;9.680;2023-01-05T08:53:58;6.20;;;2.57;;
297;SDS011;133;49.626;9.680;2023-01-05T08:56:24;4.50;;;2.30;;
297;SDS011;133;49.626;9.680;2023-01-05T08:58:51;7.17;;;2.43;;
297;SDS011;133;49.626;9.680;2023-01-05T09:01:19;8.40;;;2.83;;
297;SDS011;133;49.626;9.680;2023-01-05T09:03:45;10.20;;;2.90;;
297;SDS011;133;49.626;9.680;2023-01-05T09:06:11;7.47;;;2.73;;
297;SDS011;133;49.626;9.680;2023-01-05T09:08:38;6.37;;;2.40;;
297;SDS011;133;49.626;9.680;2023-01-05T09:13:35;7.67;;;3.33;;
297;SDS011;133;49.626;9.680;2023-01-05T09:16:09;6.83;;;2.73;;
297;SDS011;133;49.626;9.680;2023-01-05T09:18:36;11.10;;;3.07;;
297;SDS011;133;49.626;9.680;2023-01-05T09:21:03;10.60;;;2.70;;
297;SDS011;133;49.626;9.680;2023-01-05T09:23:30;13.17;;;3.10;;
297;SDS011;133;49.626;9.680;2023-01-05T09:25:56;8.07;;;2.70;;
297;SDS011;133;49.626;9.680;2023-01-05T09:28:21;14.60;;;2.80;;
297;SDS011;133;49.626;9.680;2023-01-05T09:30:47;6.43;;;3.10;;
297;SDS011;133;49.626;9.680;2023-01-05T09:33:13;10.53;;;2.80;;
297;SDS011;133;49.626;9.680;2023-01-05T09:35:38;7.20;;;2.70;;
297;SDS011;133;49.626;9.680;2023-01-05T09:38:04;8.80;;;3.10;;
297;SDS011;133;49.626;9.680;2023-01-05T09:40:30;7.47;;;2.93;;
297;SDS011;133;49.626;9.680;2023-01-05T09:43:01;9.73;;;2.70;;
297;SDS011;133;49.626;9.680;2023-01-05T09:45:27;10.60;;;3.27;;
297;SDS011;133;49.626;9.680;2023-01-05T09:47:54;8.07;;;3.07;;
297;SDS011;133;49.626;9.680;2023-01-05T09:50:23;11.70;;;3.30;;
297;SDS011;133;49.626;9.680;2023-01-05T09:52:52;10.80;;;3.40;;
297;SDS011;133;49.626;9.680;2023-01-05T09:55:22;11.30;;;3.30;;
297;SDS011;133;49.626;9.680;2023-01-05T09:57:53;10.43;;;3.90;;
297;SDS011;133;49.626;9.680;2023-01-05T10:00:23;10.77;;;3.27;;
297;SDS011;133;49.626;9.680;2023-01-05T10:03:04;8.03;;;3.20;;
297;SDS011;133;49.626;9.680;2023-01-05T10:05:33;6.77;;;2.97;;
297;SDS011;133;49.626;9.680;2023-01-05T10:08:49;7.57;;;2.77;;
297;SDS011;133;49.626;9.680;2023-01-05T10:11:06;7.57;;;3.03;;
297;SDS011;133;49.626;9.680;2023-01-05T10:13:58;9.17;;;3.23;;
297;SDS011;133;49.626;9.680;2023-01-05T10:16:28;8.57;;;2.90;;
297;SDS011;133;49.626;9.680;2023-01-05T10:18:55;9.73;;;2.80;;
297;SDS011;133;49.626;9.680;2023-01-05T10:27:08;8.10;;;3.00;;
297;SDS011;133;49.626;9.680;2023-01-05T10:29:43;12.03;;;3.57;;
297;SDS011;133;49.626;9.680;2023-01-05T10:35:07;21.57;;;4.20;;
297;SDS011;133;49.626;9.680;2023-01-05T10:38:03;13.47;;;2.90;;
297;SDS011;133;49.626;9.680;2023-01-05T10:40:50;9.80;;;3.53;;
297;SDS011;133;49.626;9.680;2023-01-05T10:46:25;12.13;;;3.30;;
297;SDS011;133;49.626;9.680;2023-01-05T10:48:50;8.60;;;2.87;;
297;SDS011;133;49.626;9.680;2023-01-05T10:51:17;7.97;;;2.87;;
297;SDS011;133;49.626;9.680;2023-01-05T10:53:43;9.47;;;2.90;;
297;SDS011;133;49.626;9.680;2023-01-05T10:58:47;7.83;;;2.60;;
297;SDS011;133;49.626;9.680;2023-01-05T11:01:29;9.90;;;3.83;;
297;SDS011;133;49.626;9.680;2023-01-05T11:04:01;11.47;;;3.00;;
297;SDS011;133;49.626;9.680;2023-01-05T11:06:32;8.97;;;3.43;;
297;SDS011;133;49.626;9.680;2023-01-05T11:09:32;3.93;;;2.30;;
297;SDS011;133;49.626;9.680;2023-01-05T11:11:57;7.60;;;2.60;;
297;SDS011;133;49.626;9.680;2023-01-05T11:14:25;8.73;;;3.17;;
297;SDS011;133;49.626;9.680;2023-01-05T11:16:53;11.73;;;3.00;;
297;SDS011;133;49.626;9.680;2023-01-05T11:19:28;10.17;;;3.30;;
297;SDS011;133;49.626;9.680;2023-01-05T11:21:57;5.87;;;3.10;;
297;SDS011;133;49.626;9.680;2023-01-05T11:26:52;10.10;;;3.40;;
297;SDS011;133;49.626;9.680;2023-01-05T11:29:18;10.37;;;3.93;;
297;SDS011;133;49.626;9.680;2023-01-05T11:31:46;19.03;;;5.30;;
297;SDS011;133;49.626;9.680;2023-01-05T11:37:00;12.97;;;3.63;;
297;SDS011;133;49.626;9.680;2023-01-05T11:42:08;10.60;;;3.80;;
297;SDS011;133;49.626;9.680;2023-01-05T11:44:43;11.87;;;4.27;;
297;SDS011;133;49.626;9.680;2023-01-05T11:47:33;9.43;;;4.30;;
297;SDS011;133;49.626;9.680;2023-01-05T11:52:38;14.83;;;4.00;;
297;SDS011;133;49.626;9.680;2023-01-05T11:55:24;13.30;;;3.20;;
297;SDS011;133;49.626;9.680;2023-01-05T12:03:38;10.07;;;3.93;;
297;SDS011;133;49.626;9.680;2023-01-05T12:09:04;17.23;;;4.90;;
297;SDS011;133;49.626;9.680;2023-01-05T12:12:01;11.80;;;4.40;;
297;SDS011;133;49.626;9.680;2023-01-05T12:23:33;18.87;;;4.80;;
297;SDS011;133;49.626;9.680;2023-01-05T12:37:43;17.90;;;4.20;;
297;SDS011;133;49.626;9.680;2023-01-05T12:40:19;14.60;;;4.40;;
297;SDS011;133;49.626;9.680;2023-01-05T12:43:08;11.27;;;3.70;;
297;SDS011;133;49.626;9.680;2023-01-05T12:49:10;14.33;;;4.53;;
297;SDS011;133;49.626;9.680;2023-01-05T12:51:18;9.70;;;3.40;;
297;SDS011;133;49.626;9.680;2023-01-05T12:59:04;7.50;;;3.80;;
297;SDS011;133;49.626;9.680;2023-01-05T13:01:37;6.60;;;3.20;;
297;SDS011;133;49.626;9.680;2023-01-05T13:04:22;12.60;;;3.70;;
297;SDS011;133;49.626;9.680;2023-01-05T13:07:08;13.50;;;3.70;;
297;SDS011;133;49.626;9.680;2023-01-05T13:09:44;9.70;;;3.20;;
297;SDS011;133;49.626;9.680;2023-01-05T13:12:17;17.03;;;4.80;;
297;SDS011;133;49.626;9.680;2023-01-05T13:14:44;11.47;;;4.33;;
297;SDS011;133;49.626;9.680;2023-01-05T13:17:31;12.47;;;4.07;;
297;SDS011;133;49.626;9.680;2023-01-05T13:22:37;17.70;;;4.33;;
297;SDS011;133;49.626;9.680;2023-01-05T13:25:13;20.37;;;4.43;;
297;SDS011;133;49.626;9.680;2023-01-05T13:27:43;10.47;;;4.37;;
297;SDS011;133;49.626;9.680;2023-01-05T13:30:18;14.50;;;4.77;;
297;SDS011;133;49.626;9.680;2023-01-05T13:43:40;18.63;;;3.60;;
297;SDS011;133;49.626;9.680;2023-01-05T13:46:38;11.63;;;3.50;;
297;SDS011;133;49.626;9.680;2023-01-05T13:49:35;11.47;;;3.40;;
297;SDS011;133;49.626;9.680;2023-01-05T13:52:16;13.47;;;4.00;;
297;SDS011;133;49.626;9.680;2023-01-05T13:55:09;7.73;;;3.30;;
297;SDS011;133;49.626;9.680;2023-01-05T13:57:39;10.00;;;3.40;;
297;SDS011;133;49.626;9.680;2023-01-05T14:00:16;14.13;;;3.20;;
297;SDS011;133;49.626;9.680;2023-01-05T14:02:56;12.00;;;3.70;;
297;SDS011;133;49.626;9.680;2023-01-05T14:05:29;9.90;;;3.43;;
297;SDS011;133;49.626;9.680;2023-01-05T14:07:59;10.67;;;4.20;;
297;SDS011;133;49.626;9.680;2023-01-05T14:10:29;12.37;;;3.37;;
297;SDS011;133;49.626;9.680;2023-01-05T14:12:57;9.80;;;3.40;;
297;SDS011;133;49.626;9.680;2023-01-05T14:18:02;11.07;;;3.60;;
297;SDS011;133;49.626;9.680;2023-01-05T14:20:30;11.67;;;3.40;;
297;SDS011;133;49.626;9.680;2023-01-05T14:25:57;7.70;;;2.80;;
297;SDS011;133;49.626;9.680;2023-01-05T14:33:32;7.53;;;3.40;;
297;SDS011;133;49.626;9.680;2023-01-05T14:47:58;9.80;;;3.97;;
297;SDS011;133;49.626;9.680;2023-01-05T14:50:29;6.90;;;3.10;;
297;SDS011;133;49.626;9.680;2023-01-05T14:53:03;14.37;;;4.03;;
297;SDS011;133;49.626;9.680;2023-01-05T14:55:34;11.90;;;3.70;;
297;SDS011;133;49.626;9.680;2023-01-05T14:58:02;9.60;;;4.03;;
297;SDS011;133;49.626;9.680;2023-01-05T15:00:40;9.30;;;3.57;;
297;SDS011;133;49.626;9.680;2023-01-05T15:06:02;12.37;;;5.70;;
297;SDS011;133;49.626;9.680;2023-01-05T15:17:43;10.90;;;5.13;;
297;SDS011;133;49.626;9.680;2023-01-05T15:26:34;19.57;;;9.67;;
297;SDS011;133;49.626;9.680;2023-01-05T15:31:44;10.60;;;5.20;;
297;SDS011;133;49.626;9.680;2023-01-05T15:39:39;8.93;;;4.43;;
297;SDS011;133;49.626;9.680;2023-01-05T15:42:12;10.27;;;3.90;;
297;SDS011;133;49.626;9.680;2023-01-05T15:45:03;15.93;;;4.40;;
297;SDS011;133;49.626;9.680;2023-01-05T15:47:34;18.47;;;5.10;;
297;SDS011;133;49.626;9.680;2023-01-05T15:50:02;10.70;;;4.90;;
297;SDS011;133;49.626;9.680;2023-01-05T15:52:36;12.50;;;5.73;;
297;SDS011;133;49.626;9.680;2023-01-05T15:57:37;8.27;;;3.97;;
297;SDS011;133;49.626;9.680;2023-01-05T16:00:19;7.90;;;3.80;;
297;SDS011;133;49.626;9.680;2023-01-05T16:02:45;9.30;;;3.50;;
297;SDS011;133;49.626;9.680;2023-01-05T16:05:15;11.10;;;3.83;;
297;SDS011;133;49.626;9.680;2023-01-05T16:10:21;6.33;;;3.40;;
297;SDS011;133;49.626;9.680;2023-01-05T16:13:04;11.13;;;3.43;;
297;SDS011;133;49.626;9.680;2023-01-05T16:15:41;9.87;;;3.70;;
297;SDS011;133;49.626;9.680;2023-01-05T16:18:13;18.30;;;3.63;;
297;SDS011;133;49.626;9.680;2023-01-05T16:20:42;12.90;;;4.30;;
297;SDS011;133;49.626;9.680;2023-01-05T16:25:48;12.60;;;3.90;;
297;SDS011;133;49.626;9.680;2023-01-05T16:28:15;13.93;;;3.70;;
297;SDS011;133;49.626;9.680;2023-01-05T16:30:44;11.93;;;3.50;;
297;SDS011;133;49.626;9.680;2023-01-05T16:35:46;10.10;;;3.60;;
297;SDS011;133;49.626;9.680;2023-01-05T16:45:46;13.43;;;4.57;;
297;SDS011;133;49.626;9.680;2023-01-05T16:50:57;11.40;;;4.27;;
297;SDS011;133;49.626;9.680;2023-01-05T16:53:25;12.73;;;3.97;;
297;SDS011;133;49.626;9.680;2023-01-05T16:55:51;12.13;;;4.47;;
297;SDS011;133;49.626;9.680;2023-01-05T16:58:37;14.60;;;4.37;;
297;SDS011;133;49.626;9.680;2023-01-05T17:03:36;20.33;;;5.40;;
297;SDS011;133;49.626;9.680;2023-01-05T17:06:02;24.87;;;5.40;;
297;SDS011;133;49.626;9.680;2023-01-05T17:08:29;18.40;;;5.00;;
297;SDS011;133;49.626;9.680;2023-01-05T17:10:59;24.80;;;10.57;;
297;SDS011;133;49.626;9.680;2023-01-05T17:13:36;15.37;;;5.60;;
297;SDS011;133;49.626;9.680;2023-01-05T17:16:08;22.20;;;5.13;;
297;SDS011;133;49.626;9.680;2023-01-05T17:18:35;15.23;;;4.40;;
297;SDS011;133;49.626;9.680;2023-01-05T17:21:00;11.23;;;4.60;;
297;SDS011;133;49.626;9.680;2023-01-05T17:23:36;13.80;;;4.70;;
297;SDS011;133;49.626;9.680;2023-01-05T17:26:08;15.57;;;4.90;;
297;SDS011;133;49.626;9.680;2023-01-05T17:28:36;21.27;;;4.90;;
297;SDS011;133;49.626;9.680;2023-01-05T17:31:01;15.07;;;4.77;;
297;SDS011;133;49.626;9.680;2023-01-05T17:33:27;7.83;;;4.40;;
297;SDS011;133;49.626;9.680;2023-01-05T17:35:53;11.10;;;4.43;;
297;SDS011;133;49.626;9.680;2023-01-05T17:38:19;13.53;;;4.60;;
297;SDS011;133;49.626;9.680;2023-01-05T17:40:45;14.00;;;4.10;;
297;SDS011;133;49.626;9.680;2023-01-05T17:43:11;14.53;;;4.50;;
297;SDS011;133;49.626;9.680;2023-01-05T17:45:39;13.90;;;4.90;;
297;SDS011;133;49.626;9.680;2023-01-05T17:48:06;17.90;;;4.13;;
297;SDS011;133;49.626;9.680;2023-01-05T17:50:32;22.83;;;5.50;;
297;SDS011;133;49.626;9.680;2023-01-05T17:52:58;9.57;;;4.00;;
297;SDS011;133;49.626;9.680;2023-01-05T17:55:26;23.47;;;5.37;;
297;SDS011;133;49.626;9.680;2023-01-05T17:57:53;15.63;;;4.60;;
297;SDS011;133;49.626;9.680;2023-01-05T18:00:22;13.97;;;4.30;;
297;SDS011;133;49.626;9.680;2023-01-05T18:02:49;10.53;;;4.10;;
297;SDS011;133;49.626;9.680;2023-01-05T18:05:16;14.37;;;4.90;;
297;SDS011;133;49.626;9.680;2023-01-05T18:07:42;8.50;;;4.30;;
297;SDS011;133;49.626;9.680;2023-01-05T18:10:29;14.67;;;4.77;;
297;SDS011;133;49.626;9.680;2023-01-05T18:12:54;14.87;;;4.47;;
297;SDS011;133;49.626;9.680;2023-01-05T18:15:20;14.23;;;4.63;;
297;SDS011;133;49.626;9.680;2023-01-05T18:17:46;21.37;;;5.20;;
297;SDS011;133;49.626;9.680;2023-01-05T18:20:12;16.10;;;4.87;;
297;SDS011;133;49.626;9.680;2023-01-05T18:22:38;14.30;;;4.60;;
297;SDS011;133;49.626;9.680;2023-01-05T18:25:04;14.83;;;5.37;;
297;SDS011;133;49.626;9.680;2023-01-05T18:27:31;20.33;;;4.13;;
297;SDS011;133;49.626;9.680;2023-01-05T18:29:59;16.43;;;4.57;;
297;SDS011;133;49.626;9.680;2023-01-05T18:32:26;11.90;;;4.20;;
297;SDS011;133;49.626;9.680;2023-01-05T18:34:52;16.17;;;5.43;;
297;SDS011;133;49.626;9.680;2023-01-05T18:37:17;8.63;;;4.20;;
297;SDS011;133;49.626;9.680;2023-01-05T18:39:43;11.57;;;4.80;;
297;SDS011;133;49.626;9.680;2023-01-05T18:42:09;10.50;;;4.63;;
297;SDS011;133;49.626;9.680;2023-01-05T18:44:34;13.00;;;4.90;;
297;SDS011;133;49.626;9.680;2023-01-05T18:47:00;13.63;;;6.00;;
297;SDS011;133;49.626;9.680;2023-01-05T18:49:26;15.90;;;6.40;;
297;SDS011;133;49.626;9.680;2023-01-05T18:51:51;24.80;;;8.83;;